sensor_id;sensor_type;location;lat;lon;timestamp;pressure;altitude;pressure_sealevel;temperature;humidity
5238;BME280;2639;49.700;7.962;2022-07-25T03:18:28;98431.50;;;17.18;89.86
5238;BME280;2639;49.700;7.962;2022-07-25T03:21:38;98430.53;;;17.16;90.14
5238;BME280;2639;49.700;7.962;2022-07-25T03:24:47;98436.69;;;17.18;89.19
5238;BME280;2639;49.700;7.962;2022-07-25T03:27:57;98434.00;;;17.16;89.76
5238;BME280;2639;49.700;7.962;2022-07-25T03:31:08;98429.59;;;17.14;89.58
5238;BME280;2639;49.700;7.962;2022-07-25T03:34:22;98435.53;;;17.11;90.11
5238;BME280;2639;49.700;7.962;2022-07-25T03:37:31;98442.06;;;17.03;91.09
5238;BME280;2639;49.700;7.962;2022-07-25T03:40:41;98433.97;;;16.95;91.32
5238;BME280;2639;49.700;7.962;2022-07-25T03:43:53;98425.91;;;16.89;92.60
5238;BME280;2639;49.700;7.962;2022-07-25T03:47:03;98430.13;;;16.87;92.83
5238;BME280;2639;49.700;7.962;2022-07-25T03:50:14;98412.69;;;16.83;93.15
5238;BME280;2639;49.700;7.962;2022-07-25T03:53:28;98402.66;;;16.73;94.12
5238;BME280;2639;49.700;7.962;2022-07-25T03:56:45;98412.34;;;16.77;93.67
5238;BME280;2639;49.700;7.962;2022-07-25T03:59:55;98408.25;;;16.80;93.32
5238;BME280;2639;49.700;7.962;2022-07-25T04:03:07;98403.09;;;16.82;92.10
5238;BME280;2639;49.700;7.962;2022-07-25T04:06:18;98405.69;;;16.82;92.79
5238;BME280;2639;49.700;7.962;2022-07-25T04:09:30;98409.75;;;16.77;93.31
5238;BME280;2639;49.700;7.962;2022-07-25T04:12:41;98406.88;;;16.71;94.03
5238;BME280;2639;49.700;7.962;2022-07-25T04:15:50;98403.50;;;16.72;94.19
5238;BME280;2639;49.700;7.962;2022-07-25T04:19:00;98393.91;;;16.71;93.96
5238;BME280;2639;49.700;7.962;2022-07-25T04:22:15;98398.44;;;16.75;94.47
5238;BME280;2639;49.700;7.962;2022-07-25T04:25:26;98395.19;;;16.79;93.87
5238;BME280;2639;49.700;7.962;2022-07-25T04:28:36;98393.69;;;16.84;93.07
5238;BME280;2639;49.700;7.962;2022-07-25T04:31:46;98396.63;;;16.92;92.80
5238;BME280;2639;49.700;7.962;2022-07-25T04:34:55;98392.94;;;16.87;92.86
5238;BME280;2639;49.700;7.962;2022-07-25T04:38:08;98391.09;;;16.84;93.22
5238;BME280;2639;49.700;7.962;2022-07-25T04:41:19;98393.66;;;16.82;93.90
5238;BME280;2639;49.700;7.962;2022-07-25T04:44:32;98390.31;;;16.85;93.97
5238;BME280;2639;49.700;7.962;2022-07-25T04:47:44;98388.63;;;16.87;94.10
5238;BME280;2639;49.700;7.962;2022-07-25T04:50:53;98378.41;;;16.90;94.88
5238;BME280;2639;49.700;7.962;2022-07-25T04:54:07;98379.63;;;16.98;95.29
5238;BME280;2639;49.700;7.962;2022-07-25T04:57:24;98376.34;;;17.02;94.96
5238;BME280;2639;49.700;7.962;2022-07-25T05:04:12;98371.63;;;17.13;94.23
5238;BME280;2639;49.700;7.962;2022-07-25T05:07:21;98370.31;;;17.23;93.75
5238;BME280;2639;49.700;7.962;2022-07-25T05:10:33;98368.09;;;17.32;92.96
5238;BME280;2639;49.700;7.962;2022-07-25T05:13:45;98365.06;;;17.42;92.85
5238;BME280;2639;49.700;7.962;2022-07-25T05:16:55;98361.75;;;17.46;92.89
5238;BME280;2639;49.700;7.962;2022-07-25T05:20:06;98363.03;;;17.56;92.67
5238;BME280;2639;49.700;7.962;2022-07-25T05:23:18;98355.69;;;17.67;92.58
5238;BME280;2639;49.700;7.962;2022-07-25T05:26:28;98358.72;;;17.78;92.08
5238;BME280;2639;49.700;7.962;2022-07-25T05:29:41;98350.56;;;17.90;91.47
5238;BME280;2639;49.700;7.962;2022-07-25T05:32:51;98344.03;;;18.01;90.46
5238;BME280;2639;49.700;7.962;2022-07-25T05:36:03;98352.34;;;18.13;90.15
5238;BME280;2639;49.700;7.962;2022-07-25T05:39:13;98340.50;;;18.21;89.78
5238;BME280;2639;49.700;7.962;2022-07-25T05:42:27;98347.06;;;18.34;89.46
5238;BME280;2639;49.700;7.962;2022-07-25T05:45:36;98334.78;;;18.54;90.07
5238;BME280;2639;49.700;7.962;2022-07-25T05:48:46;98338.25;;;18.77;90.72
5238;BME280;2639;49.700;7.962;2022-07-25T05:51:55;98332.59;;;18.89;91.04
5238;BME280;2639;49.700;7.962;2022-07-25T05:55:07;98326.16;;;19.03;89.87
5238;BME280;2639;49.700;7.962;2022-07-25T05:58:22;98322.34;;;19.19;89.88
5238;BME280;2639;49.700;7.962;2022-07-25T06:01:40;98321.28;;;19.40;89.78
5238;BME280;2639;49.700;7.962;2022-07-25T06:04:50;98321.88;;;19.57;90.03
5238;BME280;2639;49.700;7.962;2022-07-25T06:07:59;98323.22;;;19.71;89.36
5238;BME280;2639;49.700;7.962;2022-07-25T06:11:09;98316.72;;;19.85;88.79
5238;BME280;2639;49.700;7.962;2022-07-25T06:14:22;98317.28;;;20.04;88.39
5238;BME280;2639;49.700;7.962;2022-07-25T06:17:32;98311.69;;;20.20;87.60
5238;BME280;2639;49.700;7.962;2022-07-25T06:20:45;98305.28;;;20.39;86.19
5238;BME280;2639;49.700;7.962;2022-07-25T06:23:54;98305.88;;;20.59;85.64
5238;BME280;2639;49.700;7.962;2022-07-25T06:27:05;98297.78;;;20.81;85.15
5238;BME280;2639;49.700;7.962;2022-07-25T06:30:16;98302.72;;;21.04;84.83
5238;BME280;2639;49.700;7.962;2022-07-25T06:33:28;98290.25;;;21.27;83.67
5238;BME280;2639;49.700;7.962;2022-07-25T06:36:38;98294.34;;;21.51;83.28
5238;BME280;2639;49.700;7.962;2022-07-25T06:39:47;98291.41;;;21.73;81.29
5238;BME280;2639;49.700;7.962;2022-07-25T06:42:57;98294.53;;;21.96;80.22
5238;BME280;2639;49.700;7.962;2022-07-25T06:46:08;98291.63;;;22.22;78.22
5238;BME280;2639;49.700;7.962;2022-07-25T06:49:21;98293.91;;;22.47;76.74
5238;BME280;2639;49.700;7.962;2022-07-25T06:52:30;98293.50;;;22.72;75.62
5238;BME280;2639;49.700;7.962;2022-07-25T12:17:02;98122.31;;;34.14;38.30
5238;BME280;2639;49.700;7.962;2022-07-25T12:20:17;98113.81;;;34.31;39.58
5238;BME280;2639;49.700;7.962;2022-07-25T12:23:27;98112.00;;;34.61;39.55
5238;BME280;2639;49.700;7.962;2022-07-25T12:26:46;98109.25;;;34.63;38.90
5238;BME280;2639;49.700;7.962;2022-07-25T12:29:57;98106.50;;;34.66;38.49
5238;BME280;2639;49.700;7.962;2022-07-25T12:33:09;98110.97;;;34.92;39.00
5238;BME280;2639;49.700;7.962;2022-07-25T12:36:20;98116.25;;;34.93;38.96
5238;BME280;2639;49.700;7.962;2022-07-25T12:39:30;98109.38;;;35.13;39.35
5238;BME280;2639;49.700;7.962;2022-07-25T12:42:41;98106.06;;;35.56;37.48
5238;BME280;2639;49.700;7.962;2022-07-25T12:45:51;98103.00;;;35.67;39.08
5238;BME280;2639;49.700;7.962;2022-07-25T12:49:09;98098.72;;;35.63;38.70
5238;BME280;2639;49.700;7.962;2022-07-25T12:52:20;98092.38;;;35.40;39.42
5238;BME280;2639;49.700;7.962;2022-07-25T12:55:31;98094.03;;;35.45;38.44
5238;BME280;2639;49.700;7.962;2022-07-25T12:58:42;98088.72;;;35.43;38.68
5238;BME280;2639;49.700;7.962;2022-07-25T13:01:59;98083.16;;;35.98;37.87
5238;BME280;2639;49.700;7.962;2022-07-25T13:05:13;98082.34;;;36.19;37.63
5238;BME280;2639;49.700;7.962;2022-07-25T13:08:22;98090.78;;;36.53;37.41
5238;BME280;2639;49.700;7.962;2022-07-25T13:11:32;98093.03;;;36.19;36.23
5238;BME280;2639;49.700;7.962;2022-07-25T13:14:41;98089.06;;;35.82;37.75
5238;BME280;2639;49.700;7.962;2022-07-25T13:17:54;98075.16;;;35.49;36.90
5238;BME280;2639;49.700;7.962;2022-07-25T13:21:06;98088.69;;;35.19;37.63
5238;BME280;2639;49.700;7.962;2022-07-25T13:24:16;98101.56;;;34.80;38.03
5238;BME280;2639;49.700;7.962;2022-07-25T13:27:36;98109.75;;;34.47;39.43
5238;BME280;2639;49.700;7.962;2022-07-25T13:30:45;98097.16;;;34.23;39.04
5238;BME280;2639;49.700;7.962;2022-07-25T13:33:55;98123.22;;;34.14;45.19
5238;BME280;2639;49.700;7.962;2022-07-25T13:37:06;98123.94;;;33.88;45.15
5238;BME280;2639;49.700;7.962;2022-07-25T13:40:16;98123.59;;;33.37;45.92
5238;BME280;2639;49.700;7.962;2022-07-25T13:43:26;98127.28;;;32.97;47.07
5238;BME280;2639;49.700;7.962;2022-07-25T13:46:35;98110.19;;;33.07;45.98
5238;BME280;2639;49.700;7.962;2022-07-25T13:49:45;98110.78;;;33.18;45.17
5238;BME280;2639;49.700;7.962;2022-07-25T13:52:59;98104.19;;;32.99;44.62
5238;BME280;2639;49.700;7.962;2022-07-25T13:56:10;98101.56;;;33.64;43.00
5238;BME280;2639;49.700;7.962;2022-07-25T13:59:19;98093.34;;;34.31;41.51
5238;BME280;2639;49.700;7.962;2022-07-25T14:02:29;98092.13;;;34.13;41.31
5238;BME280;2639;49.700;7.962;2022-07-25T14:05:42;98093.06;;;34.12;42.70
5238;BME280;2639;49.700;7.962;2022-07-25T14:08:52;98083.38;;;34.08;41.49
5238;BME280;2639;49.700;7.962;2022-07-25T14:12:02;98088.13;;;33.99;41.95
5238;BME280;2639;49.700;7.962;2022-07-25T14:15:15;98088.91;;;33.72;42.24
5238;BME280;2639;49.700;7.962;2022-07-25T14:18:24;98079.78;;;33.48;41.61
5238;BME280;2639;49.700;7.962;2022-07-25T14:21:35;98077.59;;;33.31;42.16
5238;BME280;2639;49.700;7.962;2022-07-25T14:24:46;98073.25;;;33.29;42.48
5238;BME280;2639;49.700;7.962;2022-07-25T14:27:58;98074.22;;;33.26;41.82
5238;BME280;2639;49.700;7.962;2022-07-25T14:31:08;98068.88;;;33.26;42.34
5238;BME280;2639;49.700;7.962;2022-07-25T14:34:18;98071.34;;;33.32;43.04
5238;BME280;2639;49.700;7.962;2022-07-25T14:37:28;98083.16;;;33.55;42.52
5238;BME280;2639;49.700;7.962;2022-07-25T14:40:39;98068.03;;;33.57;42.41
5238;BME280;2639;49.700;7.962;2022-07-25T14:43:49;98071.94;;;33.44;42.91
5238;BME280;2639;49.700;7.962;2022-07-25T14:46:58;98067.66;;;33.69;42.01
5238;BME280;2639;49.700;7.962;2022-07-25T14:50:08;98057.94;;;35.08;40.49
5238;BME280;2639;49.700;7.962;2022-07-25T14:53:18;98055.09;;;36.32;39.54
5238;BME280;2639;49.700;7.962;2022-07-25T14:56:31;98073.25;;;36.23;36.79
5238;BME280;2639;49.700;7.962;2022-07-25T14:59:41;98079.34;;;36.49;35.56
5238;BME280;2639;49.700;7.962;2022-07-25T15:02:50;98083.16;;;36.65;35.42
5238;BME280;2639;49.700;7.962;2022-07-25T15:06:00;98075.94;;;36.68;35.57
5238;BME280;2639;49.700;7.962;2022-07-25T15:09:10;98091.91;;;36.47;35.62
5238;BME280;2639;49.700;7.962;2022-07-25T15:12:21;98094.28;;;36.33;36.41
5238;BME280;2639;49.700;7.962;2022-07-25T15:15:33;98099.28;;;36.42;35.84
5238;BME280;2639;49.700;7.962;2022-07-25T15:18:45;98098.50;;;36.16;37.00
5238;BME280;2639;49.700;7.962;2022-07-25T15:22:15;98107.75;;;35.59;36.94
5238;BME280;2639;49.700;7.962;2022-07-25T15:25:27;98114.81;;;34.27;38.87
5238;BME280;2639;49.700;7.962;2022-07-25T15:28:58;98121.53;;;33.48;40.20
5238;BME280;2639;49.700;7.962;2022-07-25T15:32:08;98126.00;;;33.13;41.37
5238;BME280;2639;49.700;7.962;2022-07-25T15:35:17;98126.59;;;32.88;41.91
5238;BME280;2639;49.700;7.962;2022-07-25T15:38:27;98130.72;;;33.36;41.50
5238;BME280;2639;49.700;7.962;2022-07-25T15:41:38;98124.34;;;33.74;40.12
5238;BME280;2639;49.700;7.962;2022-07-25T15:44:50;98129.31;;;34.46;39.24
5238;BME280;2639;49.700;7.962;2022-07-25T15:48:22;98142.19;;;34.88;38.49
5238;BME280;2639;49.700;7.962;2022-07-25T15:51:34;98146.25;;;35.28;37.60
5238;BME280;2639;49.700;7.962;2022-07-25T15:54:44;98150.75;;;34.71;36.09
5238;BME280;2639;49.700;7.962;2022-07-25T15:57:54;98148.50;;;34.57;37.21
5238;BME280;2639;49.700;7.962;2022-07-25T16:01:04;98163.31;;;34.10;37.34
5238;BME280;2639;49.700;7.962;2022-07-25T16:04:14;98167.78;;;33.44;37.15
5238;BME280;2639;49.700;7.962;2022-07-25T16:07:24;98167.47;;;32.47;37.48
5238;BME280;2639;49.700;7.962;2022-07-25T16:10:36;98164.00;;;32.43;38.63
5238;BME280;2639;49.700;7.962;2022-07-25T16:13:46;98163.56;;;32.23;38.69
5238;BME280;2639;49.700;7.962;2022-07-25T16:16:57;98163.84;;;32.11;38.31
5238;BME280;2639;49.700;7.962;2022-07-25T16:20:07;98168.75;;;31.84;38.61
5238;BME280;2639;49.700;7.962;2022-07-25T16:23:17;98156.31;;;31.86;38.80
5238;BME280;2639;49.700;7.962;2022-07-25T16:26:27;98158.88;;;31.92;39.35
5238;BME280;2639;49.700;7.962;2022-07-25T16:29:39;98174.88;;;31.89;39.11
5238;BME280;2639;49.700;7.962;2022-07-25T16:32:53;98167.13;;;31.77;38.75
5238;BME280;2639;49.700;7.962;2022-07-25T16:36:03;98173.78;;;31.54;38.98
5238;BME280;2639;49.700;7.962;2022-07-25T16:39:13;98180.06;;;31.50;39.22
5238;BME280;2639;49.700;7.962;2022-07-25T16:42:23;98180.06;;;31.50;39.57
5238;BME280;2639;49.700;7.962;2022-07-25T16:45:32;98198.06;;;31.31;39.24
5238;BME280;2639;49.700;7.962;2022-07-25T16:48:51;98191.97;;;31.24;41.07
5238;BME280;2639;49.700;7.962;2022-07-25T16:52:01;98203.13;;;30.94;40.55
5238;BME280;2639;49.700;7.962;2022-07-25T16:55:11;98207.66;;;30.86;40.67
5238;BME280;2639;49.700;7.962;2022-07-25T16:58:20;98207.66;;;30.82;41.40
5238;BME280;2639;49.700;7.962;2022-07-25T17:01:30;98212.13;;;30.77;39.53
5238;BME280;2639;49.700;7.962;2022-07-25T17:04:48;98217.41;;;30.80;40.39
5238;BME280;2639;49.700;7.962;2022-07-25T17:07:58;98210.66;;;30.58;41.90
5238;BME280;2639;49.700;7.962;2022-07-25T17:11:11;98219.69;;;30.45;41.90
5238;BME280;2639;49.700;7.962;2022-07-25T17:14:22;98228.59;;;30.40;41.30
5238;BME280;2639;49.700;7.962;2022-07-25T17:17:37;98233.78;;;30.47;40.61
5238;BME280;2639;49.700;7.962;2022-07-25T17:20:48;98229.81;;;30.77;40.19
5238;BME280;2639;49.700;7.962;2022-07-25T17:23:58;98241.03;;;30.97;39.90
5238;BME280;2639;49.700;7.962;2022-07-25T17:27:08;98244.00;;;30.74;40.46
5238;BME280;2639;49.700;7.962;2022-07-25T17:30:20;98262.50;;;30.77;40.58
5238;BME280;2639;49.700;7.962;2022-07-25T17:33:30;98258.88;;;30.89;41.18
5238;BME280;2639;49.700;7.962;2022-07-25T17:36:43;98277.38;;;30.91;40.56
5238;BME280;2639;49.700;7.962;2022-07-25T17:39:55;98269.03;;;30.55;41.97
5238;BME280;2639;49.700;7.962;2022-07-25T17:43:09;98262.38;;;30.20;42.71
5238;BME280;2639;49.700;7.962;2022-07-25T17:46:18;98273.28;;;29.92;43.04
5238;BME280;2639;49.700;7.962;2022-07-25T17:49:31;98282.34;;;29.62;43.03
5238;BME280;2639;49.700;7.962;2022-07-25T17:52:43;98281.63;;;29.45;43.24
5238;BME280;2639;49.700;7.962;2022-07-25T17:55:52;98297.63;;;29.26;43.77
5238;BME280;2639;49.700;7.962;2022-07-25T17:59:04;98285.47;;;28.96;44.03
5238;BME280;2639;49.700;7.962;2022-07-25T18:02:14;98285.56;;;28.85;45.13
5238;BME280;2639;49.700;7.962;2022-07-25T18:05:24;98285.59;;;28.79;44.55
5238;BME280;2639;49.700;7.962;2022-07-25T18:08:35;98283.91;;;28.64;46.01
5238;BME280;2639;49.700;7.962;2022-07-25T18:11:45;98290.09;;;28.60;45.41
5238;BME280;2639;49.700;7.962;2022-07-25T18:14:55;98297.16;;;28.52;46.83
5238;BME280;2639;49.700;7.962;2022-07-25T18:18:12;98298.06;;;28.49;46.08
5238;BME280;2639;49.700;7.962;2022-07-25T18:21:27;98299.84;;;28.37;46.49
5238;BME280;2639;49.700;7.962;2022-07-25T18:24:38;98311.34;;;28.12;46.30
5238;BME280;2639;49.700;7.962;2022-07-25T18:27:48;98321.09;;;27.92;45.77
5238;BME280;2639;49.700;7.962;2022-07-25T18:30:58;98328.13;;;27.75;46.03
5238;BME280;2639;49.700;7.962;2022-07-25T18:34:07;98320.22;;;27.52;46.22
5238;BME280;2639;49.700;7.962;2022-07-25T18:37:20;98331.63;;;27.44;46.21
5238;BME280;2639;49.700;7.962;2022-07-25T18:40:31;98342.09;;;27.15;46.98
5238;BME280;2639;49.700;7.962;2022-07-25T18:43:41;98329.78;;;27.00;48.36
5238;BME280;2639;49.700;7.962;2022-07-25T18:46:55;98335.91;;;26.87;48.06
5238;BME280;2639;49.700;7.962;2022-07-25T18:50:06;98343.78;;;26.76;48.30
5238;BME280;2639;49.700;7.962;2022-07-25T18:53:27;98342.88;;;26.70;49.55
5238;BME280;2639;49.700;7.962;2022-07-25T18:56:41;98355.16;;;26.68;49.42
5238;BME280;2639;49.700;7.962;2022-07-25T18:59:51;98356.78;;;26.50;49.42
5238;BME280;2639;49.700;7.962;2022-07-25T19:03:00;98361.13;;;26.36;50.17
5238;BME280;2639;49.700;7.962;2022-07-25T19:06:13;98357.59;;;26.38;50.37
5238;BME280;2639;49.700;7.962;2022-07-25T19:09:23;98360.25;;;26.40;49.70
5238;BME280;2639;49.700;7.962;2022-07-25T19:12:36;98359.38;;;26.39;50.39
5238;BME280;2639;49.700;7.962;2022-07-25T19:15:45;98357.63;;;26.43;49.79
5238;BME280;2639;49.700;7.962;2022-07-25T19:18:55;98359.34;;;26.33;50.27
5238;BME280;2639;49.700;7.962;2022-07-25T19:22:05;98363.69;;;26.23;50.71
5238;BME280;2639;49.700;7.962;2022-07-25T19:25:15;98361.88;;;26.16;50.81
5238;BME280;2639;49.700;7.962;2022-07-25T19:28:26;98365.44;;;26.21;50.92
5238;BME280;2639;49.700;7.962;2022-07-25T19:31:39;98358.41;;;26.20;51.81
5238;BME280;2639;49.700;7.962;2022-07-25T19:34:51;98361.84;;;26.07;50.98
5238;BME280;2639;49.700;7.962;2022-07-25T19:38:01;98363.44;;;25.87;51.30
5238;BME280;2639;49.700;7.962;2022-07-25T19:41:13;98376.59;;;25.87;51.44
5238;BME280;2639;49.700;7.962;2022-07-25T19:44:24;98388.75;;;25.74;51.21
5238;BME280;2639;49.700;7.962;2022-07-25T19:47:33;98389.44;;;25.54;50.86
5238;BME280;2639;49.700;7.962;2022-07-25T19:50:43;98388.44;;;25.40;51.35
5238;BME280;2639;49.700;7.962;2022-07-25T19:53:55;98386.63;;;25.36;51.70
5238;BME280;2639;49.700;7.962;2022-07-25T19:57:05;98407.66;;;25.34;52.19
5238;BME280;2639;49.700;7.962;2022-07-25T20:00:16;98406.69;;;25.26;52.00
5238;BME280;2639;49.700;7.962;2022-07-25T20:03:28;98410.22;;;25.28;53.04
5238;BME280;2639;49.700;7.962;2022-07-25T20:06:38;98423.34;;;25.25;52.91
5238;BME280;2639;49.700;7.962;2022-07-25T20:09:54;98428.34;;;25.08;52.81
5238;BME280;2639;49.700;7.962;2022-07-25T20:13:11;98423.94;;;25.06;53.18
5238;BME280;2639;49.700;7.962;2022-07-25T20:16:22;98432.63;;;25.02;53.46
5238;BME280;2639;49.700;7.962;2022-07-25T20:19:37;98446.50;;;24.88;54.28
